createdAt,value
2023-04-18T00:00:16.031Z,12.60
2023-04-18T00:02:44.268Z,12.50
2023-04-18T00:05:18.269Z,12.50
2023-04-18T00:07:48.116Z,12.50
2023-04-18T00:10:15.555Z,12.50
2023-04-18T00:12:47.272Z,12.40
2023-04-18T00:15:17.103Z,12.40
2023-04-18T00:17:44.312Z,12.40
2023-04-18T00:20:14.038Z,12.30
2023-04-18T00:22:46.777Z,12.30
2023-04-18T00:25:19.231Z,12.30
2023-04-18T00:27:48.675Z,12.30
2023-04-18T00:30:15.819Z,12.20
2023-04-18T00:32:43.138Z,12.20
2023-04-18T00:35:14.768Z,12.10
2023-04-18T00:37:42.000Z,12.10
2023-04-18T00:40:09.662Z,12.10
2023-04-18T00:42:39.138Z,12.00
2023-04-18T00:45:08.919Z,12.00
2023-04-18T00:47:38.725Z,12.00
2023-04-18T00:50:09.313Z,11.90
2023-04-18T00:52:36.952Z,11.80
2023-04-18T00:55:08.647Z,11.80
2023-04-18T00:57:36.450Z,11.70
2023-04-18T01:00:10.506Z,11.70
2023-04-18T01:02:43.151Z,11.60
2023-04-18T01:05:15.111Z,11.60
2023-04-18T01:07:49.745Z,11.50
2023-04-18T01:10:22.066Z,11.50
2023-04-18T01:12:49.169Z,11.40
2023-04-18T01:15:16.254Z,11.40
2023-04-18T01:17:48.251Z,11.30
2023-04-18T01:20:21.133Z,11.30
2023-04-18T01:22:50.711Z,11.20
2023-04-18T01:25:20.388Z,11.20
2023-04-18T01:27:52.144Z,11.20
2023-04-18T01:30:19.232Z,11.10
2023-04-18T01:32:46.535Z,11.10
2023-04-18T01:35:13.728Z,11.00
2023-04-18T01:37:43.455Z,11.00
2023-04-18T01:40:13.642Z,10.90
2023-04-18T01:42:40.820Z,10.90
2023-04-18T01:45:14.663Z,10.90
2023-04-18T01:47:41.796Z,10.90
2023-04-18T01:50:12.125Z,10.90
2023-04-18T01:52:41.745Z,10.90
2023-04-18T01:55:11.529Z,10.90
2023-04-18T01:57:41.093Z,10.80
2023-04-18T02:00:13.661Z,10.80
2023-04-18T02:02:41.297Z,10.80
2023-04-18T02:05:11.089Z,10.80
2023-04-18T02:07:41.184Z,10.70
2023-04-18T02:10:11.368Z,10.70
2023-04-18T02:12:38.493Z,10.70
2023-04-18T02:15:08.494Z,10.70
2023-04-18T02:17:36.349Z,10.70
2023-04-18T02:20:08.131Z,10.70
2023-04-18T02:22:38.183Z,10.60
2023-04-18T02:25:07.998Z,10.60
2023-04-18T02:27:35.198Z,10.50
2023-04-18T02:30:04.940Z,10.50
2023-04-18T02:32:34.416Z,10.50
2023-04-18T02:35:01.859Z,10.50
2023-04-18T02:37:28.964Z,10.40
2023-04-18T02:39:56.136Z,10.40
2023-04-18T02:42:28.184Z,10.40
2023-04-18T02:44:55.435Z,10.40
2023-04-18T02:47:27.303Z,10.30
2023-04-18T02:49:54.473Z,10.30
2023-04-18T02:52:27.205Z,10.30
2023-04-18T02:54:54.428Z,10.30
2023-04-18T02:57:23.680Z,10.30
2023-04-18T02:59:55.713Z,10.30
2023-04-18T03:02:22.989Z,10.20
2023-04-18T03:04:50.426Z,10.20
2023-04-18T03:07:19.829Z,10.20
2023-04-18T03:09:46.979Z,10.20
2023-04-18T03:12:14.070Z,10.20
2023-04-18T03:14:41.260Z,10.10
2023-04-18T03:17:10.465Z,10.10
2023-04-18T03:19:45.472Z,10.10
2023-04-18T03:22:14.160Z,10.10
2023-04-18T03:24:42.248Z,10.10
2023-04-18T03:27:09.376Z,10.10
2023-04-18T03:29:36.508Z,10.00
2023-04-18T03:32:03.696Z,10.00
2023-04-18T03:34:33.022Z,10.00
2023-04-18T03:37:00.200Z,10.00
2023-04-18T03:39:29.777Z,10.00
2023-04-18T03:41:59.408Z,10.00
2023-04-18T03:44:28.987Z,10.00
2023-04-18T03:46:57.314Z,10.00
2023-04-18T03:49:26.702Z,9.90
2023-04-18T03:51:53.859Z,9.90
2023-04-18T03:54:23.353Z,9.90
2023-04-18T03:56:53.680Z,9.90
2023-04-18T03:59:20.854Z,9.90
2023-04-18T04:01:50.459Z,9.80
2023-04-18T04:04:19.921Z,9.80
2023-04-18T04:06:52.496Z,9.80
2023-04-18T04:09:19.701Z,9.80
2023-04-18T04:11:46.927Z,9.80
2023-04-18T04:14:18.845Z,9.80
2023-04-18T04:16:46.131Z,9.70
2023-04-18T04:19:13.533Z,9.70
2023-04-18T04:21:40.703Z,9.70
2023-04-18T04:24:10.422Z,9.60
2023-04-18T04:26:42.765Z,9.60
2023-04-18T04:29:16.107Z,9.60
2023-04-18T04:31:43.321Z,9.60
2023-04-18T04:34:12.773Z,9.60
2023-04-18T04:36:46.782Z,9.50
2023-04-18T04:39:17.970Z,9.50
2023-04-18T04:41:50.040Z,9.50
2023-04-18T04:44:19.420Z,9.50
2023-04-18T04:46:47.884Z,9.50
2023-04-18T04:49:14.989Z,9.50
2023-04-18T04:51:44.350Z,9.40
2023-04-18T04:54:14.117Z,9.40
2023-04-18T04:56:48.699Z,9.40
2023-04-18T04:59:18.360Z,9.30
2023-04-18T05:01:46.739Z,9.30
2023-04-18T05:04:17.294Z,9.30
2023-04-18T05:06:50.685Z,9.30
2023-04-18T05:09:22.343Z,9.30
2023-04-18T05:11:52.084Z,9.30
2023-04-18T05:14:21.664Z,9.30
2023-04-18T05:16:48.854Z,9.30
2023-04-18T05:19:16.142Z,9.30
2023-04-18T05:21:45.932Z,9.30
2023-04-18T05:24:13.405Z,9.20
2023-04-18T05:26:45.542Z,9.20
2023-04-18T05:29:12.743Z,9.20
2023-04-18T05:31:39.921Z,9.20
2023-04-18T05:34:09.060Z,9.20
2023-04-18T05:36:38.584Z,9.20
2023-04-18T05:39:05.689Z,9.20
2023-04-18T05:41:35.018Z,9.20
2023-04-18T05:44:07.044Z,9.10
2023-04-18T05:46:36.602Z,9.10
2023-04-18T05:49:08.414Z,9.10
2023-04-18T05:51:36.060Z,9.10
2023-04-18T05:54:03.324Z,9.10
2023-04-18T05:56:35.372Z,9.10
2023-04-18T05:59:02.578Z,9.20
2023-04-18T06:01:29.890Z,9.10
2023-04-18T06:03:59.807Z,9.20
2023-04-18T06:06:31.802Z,9.20
2023-04-18T06:09:01.063Z,9.20
2023-04-18T06:11:33.553Z,9.20
2023-04-18T06:14:00.738Z,9.20
2023-04-18T06:16:32.218Z,9.20
2023-04-18T06:19:01.224Z,9.20
2023-04-18T06:21:33.346Z,9.20
2023-04-18T06:24:01.638Z,9.10
2023-04-18T06:26:33.542Z,9.10
2023-04-18T06:29:03.205Z,9.20
2023-04-18T06:31:35.444Z,9.30
2023-04-18T06:34:02.585Z,9.30
2023-04-18T06:36:34.698Z,9.30
2023-04-18T06:39:04.055Z,9.30
2023-04-18T06:41:31.756Z,9.30
2023-04-18T06:44:14.597Z,9.30
2023-04-18T06:46:42.639Z,9.40
2023-04-18T06:49:10.192Z,9.40
2023-04-18T06:51:37.324Z,9.40
2023-04-18T06:54:04.494Z,9.50
2023-04-18T06:56:36.241Z,9.50
2023-04-18T06:59:17.366Z,9.50
2023-04-18T07:01:44.639Z,9.50
2023-04-18T07:04:15.065Z,9.60
2023-04-18T07:06:47.147Z,9.60
2023-04-18T07:09:16.512Z,9.60
2023-04-18T07:11:46.121Z,9.60
2023-04-18T07:14:15.961Z,9.60
2023-04-18T07:16:43.324Z,9.70
2023-04-18T07:19:13.571Z,9.70
2023-04-18T07:21:44.948Z,9.70
2023-04-18T07:24:19.228Z,9.70
2023-04-18T07:26:49.346Z,9.80
2023-04-18T07:29:22.261Z,9.80
2023-04-18T07:31:49.886Z,9.90
2023-04-18T07:34:17.881Z,9.90
2023-04-18T07:36:45.151Z,10.00
2023-04-18T07:39:19.558Z,10.10
2023-04-18T07:41:51.189Z,10.20
2023-04-18T07:44:21.549Z,10.20
2023-04-18T07:46:50.762Z,10.30
2023-04-18T07:49:17.937Z,10.40
2023-04-18T07:51:47.581Z,10.40
2023-04-18T07:54:17.169Z,10.50
2023-04-18T07:56:46.817Z,10.50
2023-04-18T07:59:14.194Z,10.50
2023-04-18T08:01:43.674Z,10.50
2023-04-18T08:04:12.031Z,10.60
2023-04-18T08:06:39.387Z,10.60
2023-04-18T08:09:09.161Z,10.60
2023-04-18T08:11:41.510Z,10.60
2023-04-18T08:14:08.647Z,10.60
2023-04-18T08:16:36.030Z,10.70
2023-04-18T08:19:06.258Z,10.70
2023-04-18T08:21:35.575Z,10.70
2023-04-18T08:24:05.065Z,10.80
2023-04-18T08:26:32.214Z,10.80
2023-04-18T08:28:59.389Z,10.90
2023-04-18T08:31:28.963Z,10.90
2023-04-18T08:34:05.126Z,11.00
2023-04-18T08:36:35.586Z,11.00
2023-04-18T08:39:02.873Z,11.10
2023-04-18T08:41:37.887Z,11.20
2023-04-18T08:44:06.308Z,11.20
2023-04-18T08:46:35.873Z,11.40
2023-04-18T08:49:12.154Z,11.40
2023-04-18T08:51:45.533Z,11.50
2023-04-18T08:54:18.370Z,11.50
2023-04-18T08:56:45.836Z,11.60
2023-04-18T08:59:13.132Z,11.70
2023-04-18T09:01:58.882Z,11.70
2023-04-18T09:04:32.845Z,11.80
2023-04-18T09:07:09.168Z,11.90
2023-04-18T09:09:58.851Z,11.90
2023-04-18T09:12:29.702Z,12.00
2023-04-18T09:15:15.629Z,12.10
2023-04-18T09:17:51.150Z,12.20
2023-04-18T09:20:26.594Z,12.20
2023-04-18T09:23:00.805Z,12.30
2023-04-18T09:25:48.123Z,12.40
2023-04-18T09:28:33.292Z,12.50
2023-04-18T09:31:16.665Z,12.50
2023-04-18T09:33:57.945Z,12.60
2023-04-18T09:36:31.123Z,12.60
2023-04-18T09:39:00.896Z,12.70
2023-04-18T09:41:30.517Z,12.80
2023-04-18T09:44:15.121Z,12.80
2023-04-18T09:46:45.396Z,12.90
2023-04-18T09:49:19.232Z,12.90
2023-04-18T09:51:46.906Z,12.90
2023-04-18T09:54:21.743Z,13.00
2023-04-18T09:56:50.900Z,13.00
2023-04-18T09:59:27.606Z,13.10
2023-04-18T10:01:59.434Z,13.10
2023-04-18T10:04:28.499Z,13.10
2023-04-18T10:06:58.725Z,13.20
2023-04-18T10:09:31.911Z,13.30
2023-04-18T10:12:06.938Z,13.30
2023-04-18T10:14:40.583Z,13.40
2023-04-18T10:17:17.833Z,13.40
2023-04-18T10:20:05.652Z,13.40
2023-04-18T10:22:33.950Z,13.50
2023-04-18T10:25:03.742Z,13.60
2023-04-18T10:27:51.498Z,13.70
2023-04-18T10:30:44.406Z,13.70
2023-04-18T10:33:41.931Z,13.90
2023-04-18T10:36:12.348Z,14.00
2023-04-18T10:38:48.817Z,14.00
2023-04-18T10:41:23.676Z,14.10
2023-04-18T10:44:18.577Z,14.10
2023-04-18T10:46:53.506Z,14.10
2023-04-18T10:49:30.268Z,14.10
2023-04-18T10:52:11.709Z,14.20
2023-04-18T10:55:08.436Z,14.30
2023-04-18T10:57:39.803Z,14.30
2023-04-18T11:00:17.415Z,14.20
2023-04-18T11:03:00.298Z,14.20
2023-04-18T11:05:31.141Z,14.20
2023-04-18T11:07:58.266Z,14.20
2023-04-18T11:10:27.935Z,14.20
2023-04-18T11:12:56.556Z,14.20
2023-04-18T11:15:25.696Z,14.10
2023-04-18T11:18:00.476Z,14.20
2023-04-18T11:20:41.021Z,14.20
2023-04-18T11:23:25.078Z,14.10
2023-04-18T11:25:56.282Z,14.20
2023-04-18T11:28:25.197Z,14.10
2023-04-18T11:30:52.370Z,14.20
2023-04-18T11:33:21.883Z,14.30
2023-04-18T11:35:49.120Z,14.30
2023-04-18T11:38:16.677Z,14.30
2023-04-18T11:40:52.567Z,14.30
2023-04-18T11:43:25.407Z,14.40
2023-04-18T11:45:57.725Z,14.40
2023-04-18T11:48:40.919Z,14.50
2023-04-18T11:51:29.000Z,14.60
2023-04-18T11:54:00.932Z,14.50
2023-04-18T11:56:28.236Z,14.50
2023-04-18T11:58:57.843Z,14.60
2023-04-18T12:01:27.184Z,14.60
2023-04-18T12:04:05.653Z,14.70
2023-04-18T12:06:53.471Z,14.70
2023-04-18T12:09:27.725Z,14.80
2023-04-18T12:12:02.809Z,14.80
2023-04-18T12:14:36.172Z,14.80
2023-04-18T12:17:03.791Z,14.80
2023-04-18T12:19:35.526Z,14.80
2023-04-18T12:22:05.281Z,14.80
2023-04-18T12:24:32.895Z,14.90
2023-04-18T12:27:02.457Z,14.80
2023-04-18T12:29:32.286Z,14.80
2023-04-18T12:32:03.836Z,14.90
2023-04-18T12:34:33.548Z,14.90
2023-04-18T12:37:01.037Z,14.90
2023-04-18T12:39:30.559Z,14.90
2023-04-18T12:41:59.846Z,15.00
2023-04-18T12:44:29.077Z,15.00
2023-04-18T12:47:01.291Z,15.10
2023-04-18T12:49:28.449Z,15.20
2023-04-18T12:52:02.554Z,15.20
2023-04-18T12:54:29.731Z,15.20
2023-04-18T12:56:56.989Z,15.20
2023-04-18T12:59:24.239Z,15.30
2023-04-18T13:01:53.613Z,15.30
2023-04-18T13:04:21.417Z,15.20
2023-04-18T13:06:54.526Z,15.20
2023-04-18T13:09:21.642Z,15.20
2023-04-18T13:11:51.182Z,15.30
2023-04-18T13:14:18.464Z,15.30
2023-04-18T13:16:50.407Z,15.30
2023-04-18T13:19:20.585Z,15.40
2023-04-18T13:21:53.360Z,15.40
2023-04-18T13:24:20.565Z,15.40
2023-04-18T13:26:47.817Z,15.50
2023-04-18T13:29:15.140Z,15.50
2023-04-18T13:31:44.893Z,15.60
2023-04-18T13:34:19.257Z,15.60
2023-04-18T13:36:51.617Z,15.70
2023-04-18T13:39:24.902Z,15.70
2023-04-18T13:41:57.481Z,15.70
2023-04-18T13:44:29.855Z,15.70
2023-04-18T13:46:57.412Z,15.80
2023-04-18T13:49:27.159Z,15.80
2023-04-18T13:51:57.078Z,15.70
2023-04-18T13:54:26.645Z,15.80
2023-04-18T13:57:03.138Z,15.80
2023-04-18T13:59:34.958Z,15.80
2023-04-18T14:02:02.556Z,15.90
2023-04-18T14:04:31.918Z,15.90
2023-04-18T14:07:02.699Z,16.00
2023-04-18T14:09:29.912Z,16.00
2023-04-18T14:11:58.266Z,16.00
2023-04-18T14:14:28.135Z,16.10
2023-04-18T14:16:55.289Z,16.10
2023-04-18T14:19:25.047Z,16.10
2023-04-18T14:21:54.738Z,16.00
2023-04-18T14:24:21.861Z,16.00
2023-04-18T14:26:51.105Z,16.00
2023-04-18T14:29:20.889Z,16.10
2023-04-18T14:31:48.123Z,16.10
2023-04-18T14:34:17.915Z,16.20
2023-04-18T14:36:47.552Z,16.20
2023-04-18T14:39:17.049Z,16.30
2023-04-18T14:41:46.301Z,16.30
2023-04-18T14:44:15.576Z,16.20
2023-04-18T14:46:43.347Z,16.30
2023-04-18T14:49:10.578Z,16.40
2023-04-18T14:51:37.916Z,16.40
2023-04-18T14:54:05.486Z,16.30
2023-04-18T14:56:34.942Z,16.30
2023-04-18T14:59:04.333Z,16.40
2023-04-18T15:01:33.951Z,16.40
2023-04-18T15:04:01.373Z,16.40
2023-04-18T15:06:28.661Z,16.50
2023-04-18T15:08:56.710Z,16.50
2023-04-18T15:11:24.365Z,16.60
2023-04-18T15:13:51.421Z,16.50
2023-04-18T15:16:21.182Z,16.50
2023-04-18T15:18:48.278Z,16.50
2023-04-18T15:21:17.861Z,16.60
2023-04-18T15:23:45.006Z,16.70
2023-04-18T15:26:12.103Z,16.70
2023-04-18T15:28:39.226Z,16.70
2023-04-18T15:31:11.000Z,16.80
2023-04-18T15:33:42.638Z,16.80
2023-04-18T15:36:10.081Z,16.90
2023-04-18T15:38:40.121Z,16.90
2023-04-18T15:41:07.487Z,16.90
2023-04-18T15:43:34.648Z,17.00
2023-04-18T15:46:04.511Z,17.00
2023-04-18T15:48:34.832Z,17.00
2023-04-18T15:51:07.172Z,17.00
2023-04-18T15:53:38.751Z,17.00
2023-04-18T15:56:10.633Z,16.90
2023-04-18T15:58:37.716Z,16.90
2023-04-18T16:01:05.738Z,16.80
2023-04-18T16:03:36.160Z,16.80
2023-04-18T16:06:04.506Z,16.90
2023-04-18T16:08:33.148Z,16.90
2023-04-18T16:11:02.886Z,16.90
2023-04-18T16:13:30.000Z,16.90
2023-04-18T16:16:00.346Z,16.90
2023-04-18T16:18:30.459Z,16.90
2023-04-18T16:20:57.698Z,17.00
2023-04-18T16:23:26.238Z,16.90
2023-04-18T16:25:57.893Z,16.80
2023-04-18T16:28:27.648Z,16.90
2023-04-18T16:30:59.788Z,16.90
2023-04-18T16:33:27.124Z,16.90
2023-04-18T16:35:58.565Z,16.90
2023-04-18T16:38:27.350Z,17.00
2023-04-18T16:41:01.965Z,17.00
2023-04-18T16:43:31.016Z,17.00
2023-04-18T16:46:00.710Z,17.00
2023-04-18T16:48:29.062Z,17.00
2023-04-18T16:50:56.874Z,17.10
2023-04-18T16:53:26.566Z,17.00
2023-04-18T16:55:56.661Z,17.00
2023-04-18T16:58:26.053Z,17.00
2023-04-18T17:00:56.753Z,17.00
2023-04-18T17:03:23.982Z,17.00
2023-04-18T17:05:55.761Z,17.00
2023-04-18T17:08:27.087Z,17.10
2023-04-18T17:10:59.661Z,17.10
2023-04-18T17:13:31.548Z,17.10
2023-04-18T17:16:01.331Z,17.10
2023-04-18T17:18:30.781Z,17.10
2023-04-18T17:20:59.977Z,17.00
2023-04-18T17:23:31.556Z,17.00
2023-04-18T17:25:59.894Z,17.00
2023-04-18T17:28:27.033Z,17.00
2023-04-18T17:30:54.101Z,17.00
2023-04-18T17:33:21.341Z,16.90
2023-04-18T17:35:48.854Z,17.00
2023-04-18T17:38:18.471Z,16.90
2023-04-18T17:40:46.042Z,16.90
2023-04-18T17:43:15.553Z,16.90
2023-04-18T17:45:44.949Z,16.80
2023-04-18T17:48:14.435Z,16.80
2023-04-18T17:50:46.203Z,16.80
2023-04-18T17:53:13.634Z,16.80
2023-04-18T17:55:41.181Z,16.70
2023-04-18T17:58:10.546Z,16.70
2023-04-18T18:00:39.842Z,16.50
2023-04-18T18:03:13.618Z,16.50
2023-04-18T18:05:41.947Z,16.50
2023-04-18T18:08:11.565Z,16.50
2023-04-18T18:10:41.342Z,16.50
2023-04-18T18:13:11.118Z,16.40
2023-04-18T18:15:38.252Z,16.40
2023-04-18T18:18:10.148Z,16.30
2023-04-18T18:20:42.798Z,16.30
2023-04-18T18:23:12.276Z,16.20
2023-04-18T18:25:41.960Z,16.10
2023-04-18T18:28:11.598Z,16.00
2023-04-18T18:30:38.735Z,16.00
2023-04-18T18:33:06.072Z,16.00
2023-04-18T18:35:33.310Z,15.90
2023-04-18T18:38:03.171Z,15.80
2023-04-18T18:40:30.384Z,15.70
2023-04-18T18:42:59.781Z,15.60
2023-04-18T18:45:31.768Z,15.60
2023-04-18T18:48:01.197Z,15.60
2023-04-18T18:50:28.312Z,15.50
2023-04-18T18:52:57.856Z,15.50
2023-04-18T18:55:30.195Z,15.50
2023-04-18T18:57:59.921Z,15.40
2023-04-18T19:00:29.312Z,15.40
2023-04-18T19:02:56.640Z,15.40
2023-04-18T19:05:26.620Z,15.30
2023-04-18T19:07:53.815Z,15.30
2023-04-18T19:10:23.081Z,15.20
2023-04-18T19:12:52.357Z,15.20
2023-04-18T19:15:22.790Z,15.10
2023-04-18T19:17:52.198Z,15.10
2023-04-18T19:20:22.440Z,15.00
2023-04-18T19:22:49.620Z,15.00
2023-04-18T19:25:21.996Z,15.00
2023-04-18T19:27:51.554Z,14.90
2023-04-18T19:30:18.741Z,14.90
2023-04-18T19:32:50.684Z,14.90
2023-04-18T19:35:17.882Z,14.90
2023-04-18T19:37:52.397Z,14.80
2023-04-18T19:40:19.501Z,14.70
2023-04-18T19:42:48.871Z,14.70
2023-04-18T19:45:20.680Z,14.70
2023-04-18T19:47:47.889Z,14.60
2023-04-18T19:50:15.182Z,14.60
2023-04-18T19:52:42.476Z,14.60
2023-04-18T19:55:10.175Z,14.60
2023-04-18T19:57:43.397Z,14.50
2023-04-18T20:00:12.856Z,14.50
2023-04-18T20:02:41.189Z,14.50
2023-04-18T20:05:09.603Z,14.50
2023-04-18T20:07:41.896Z,14.50
2023-04-18T20:10:13.912Z,14.50
2023-04-18T20:12:41.076Z,14.50
2023-04-18T20:15:11.464Z,14.40
2023-04-18T20:17:38.972Z,14.40
2023-04-18T20:20:09.275Z,14.40
2023-04-18T20:22:37.599Z,14.30
2023-04-18T20:25:07.070Z,14.30
2023-04-18T20:27:34.280Z,14.20
2023-04-18T20:30:01.384Z,14.20
2023-04-18T20:32:33.512Z,14.20
2023-04-18T20:35:02.630Z,14.10
2023-04-18T20:37:36.637Z,14.10
2023-04-18T20:40:10.849Z,14.10
2023-04-18T20:42:43.074Z,14.10
2023-04-18T20:45:15.811Z,14.10
2023-04-18T20:47:43.343Z,14.10
2023-04-18T20:50:11.044Z,14.00
2023-04-18T20:52:42.864Z,14.00
2023-04-18T20:55:13.067Z,14.00
2023-04-18T20:57:40.274Z,14.00
2023-04-18T21:00:13.947Z,13.90
2023-04-18T21:02:44.679Z,13.90
2023-04-18T21:05:14.099Z,13.90
2023-04-18T21:07:41.317Z,13.90
2023-04-18T21:10:08.785Z,13.90
2023-04-18T21:12:42.140Z,13.90
2023-04-18T21:15:09.591Z,13.80
2023-04-18T21:17:38.796Z,13.80
2023-04-18T21:20:06.993Z,13.80
2023-04-18T21:22:43.980Z,13.80
2023-04-18T21:25:11.122Z,13.80
2023-04-18T21:27:40.625Z,13.70
2023-04-18T21:30:08.227Z,13.70
2023-04-18T21:32:37.491Z,13.70
2023-04-18T21:35:07.181Z,13.70
2023-04-18T21:37:36.482Z,13.70
2023-04-18T21:40:08.918Z,13.70
2023-04-18T21:42:40.437Z,13.70
2023-04-18T21:45:10.958Z,13.70
2023-04-18T21:47:40.722Z,13.70
2023-04-18T21:50:10.865Z,13.70
2023-04-18T21:52:42.536Z,13.60
2023-04-18T21:55:13.842Z,13.70
2023-04-18T21:57:41.155Z,13.60
2023-04-18T22:00:10.779Z,13.50
2023-04-18T22:02:38.167Z,13.50
2023-04-18T22:05:05.712Z,13.50
2023-04-18T22:07:43.287Z,13.50
2023-04-18T22:10:16.510Z,13.50
2023-04-18T22:12:43.777Z,13.50
2023-04-18T22:15:18.167Z,13.50
2023-04-18T22:17:46.110Z,13.50
2023-04-18T22:20:21.594Z,13.40
2023-04-18T22:22:48.674Z,13.40
2023-04-18T22:25:18.024Z,13.40
2023-04-18T22:27:47.718Z,13.40
2023-04-18T22:30:15.387Z,13.40
2023-04-18T22:32:42.570Z,13.30
2023-04-18T22:35:12.141Z,13.30
2023-04-18T22:37:39.245Z,13.30
2023-04-18T22:40:11.659Z,13.30
2023-04-18T22:42:40.952Z,13.30
2023-04-18T22:45:08.492Z,13.30
2023-04-18T22:47:42.331Z,13.30
2023-04-18T22:50:09.834Z,13.30
2023-04-18T22:52:39.445Z,13.30
2023-04-18T22:55:09.684Z,13.30
2023-04-18T22:57:39.341Z,13.20
2023-04-18T23:00:07.164Z,13.20
2023-04-18T23:02:42.283Z,13.20
2023-04-18T23:05:10.890Z,13.20
2023-04-18T23:07:42.706Z,13.20
2023-04-18T23:10:12.609Z,13.20
2023-04-18T23:12:39.723Z,13.20
2023-04-18T23:15:09.456Z,13.20
2023-04-18T23:17:36.605Z,13.20
2023-04-18T23:20:10.940Z,13.20
2023-04-18T23:22:42.566Z,13.10
2023-04-18T23:25:12.091Z,13.10
2023-04-18T23:27:41.865Z,13.10
2023-04-18T23:30:09.526Z,13.10
2023-04-18T23:32:40.608Z,13.00
2023-04-18T23:35:11.492Z,13.00
2023-04-18T23:37:38.698Z,13.00
2023-04-18T23:40:11.148Z,13.00
2023-04-18T23:42:38.350Z,13.00
2023-04-18T23:45:05.998Z,12.90
2023-04-18T23:47:37.308Z,12.90
2023-04-18T23:50:07.365Z,12.90
2023-04-18T23:52:38.191Z,12.90
2023-04-18T23:55:07.849Z,12.90
2023-04-18T23:57:37.576Z,12.90
